Time;durP1;ratioP1;P1;durP2;ratioP2;P2;SDS_P1;SDS_P2;PMS_P1;PMS_P2;Temp;Humidity;BMP_temperature;BMP_pressure;BME280_temperature;BME280_humidity;BME280_pressure;Samples;Min_cycle;Max_cycle;Signal;HPM_P1;HPM_P2
2022/12/19 00:01:22;;;;;;;15.63;7.70;;;-3.50;99.90;-3.90;101754.00;;;;5030263;27;88475;-65
2022/12/19 00:03:52;;;;;;;15.90;9.30;;;-3.40;99.90;-3.80;101746.00;;;;5031798;27;89074;-62
2022/12/19 00:06:19;;;;;;;16.00;8.73;;;-3.40;99.90;-3.80;101741.00;;;;5012793;27;87818;-62
2022/12/19 00:08:47;;;;;;;18.57;8.80;;;-3.40;99.90;-3.80;101736.00;;;;5011758;27;89065;-63
2022/12/19 00:11:15;;;;;;;13.50;8.93;;;-3.30;99.90;-3.80;101730.00;;;;5027525;27;87839;-64
2022/12/19 00:13:42;;;;;;;16.87;9.13;;;-3.30;99.90;-3.70;101716.00;;;;5029294;27;87803;-64
2022/12/19 00:16:15;;;;;;;21.33;9.40;;;-3.10;99.90;-3.80;101703.00;;;;5032396;27;88029;-65
2022/12/19 00:18:43;;;;;;;17.10;8.63;;;-3.30;99.90;-3.80;101693.00;;;;5033866;27;87523;-65
2022/12/19 00:21:16;;;;;;;18.63;9.87;;;-3.30;99.90;-3.70;101701.00;;;;5034143;27;87594;-65
2022/12/19 00:23:43;;;;;;;17.73;9.60;;;-3.20;99.90;-3.70;101705.00;;;;5033870;27;87464;-64
2022/12/19 00:26:13;;;;;;;19.53;9.90;;;-3.30;99.90;-3.70;101709.00;;;;5015424;27;87549;-65
2022/12/19 00:28:40;;;;;;;16.90;8.87;;;-3.20;99.90;-3.70;101708.00;;;;5017300;27;87854;-65
2022/12/19 00:31:06;;;;;;;16.77;9.07;;;-3.10;99.90;-3.70;101701.00;;;;5027092;27;87306;-64
2022/12/19 00:33:32;;;;;;;13.93;8.37;;;-3.10;99.90;-3.70;101701.00;;;;5012589;27;88660;-64
2022/12/19 00:36:04;;;;;;;14.80;8.50;;;-3.30;99.90;-3.80;101715.00;;;;4981263;27;88389;-66
2022/12/19 00:38:30;;;;;;;14.07;8.37;;;-3.10;99.90;-3.80;101707.00;;;;5032736;27;87527;-62
2022/12/19 00:41:23;;;;;;;16.73;9.07;;;-3.20;99.90;-3.80;101700.00;;;;5016181;27;87473;-64
2022/12/19 00:44:02;;;;;;;14.93;8.77;;;-3.10;99.90;-3.80;101710.00;;;;5034604;27;88421;-64
2022/12/19 00:46:30;;;;;;;16.27;8.77;;;-3.30;99.90;-3.80;101703.00;;;;5037510;27;87561;-67
2022/12/19 00:48:56;;;;;;;17.47;9.33;;;-3.30;99.90;-3.90;101699.00;;;;5015130;27;87305;-64
2022/12/19 00:51:26;;;;;;;15.40;8.23;;;-3.20;99.90;-3.90;101709.00;;;;5002480;27;86527;-65
2022/12/19 00:53:54;;;;;;;13.40;8.70;;;-3.30;99.90;-3.90;101735.00;;;;5033933;27;87527;-63
2022/12/19 00:56:27;;;;;;;18.07;10.07;;;-3.30;99.90;-4.00;101758.00;;;;5036168;27;87358;-63
2022/12/19 00:58:55;;;;;;;17.03;9.50;;;-3.40;99.90;-4.00;101739.00;;;;5017867;27;88092;-64
2022/12/19 01:01:28;;;;;;;18.33;9.80;;;-3.40;99.90;-4.10;101731.00;;;;5017153;27;87289;-65
2022/12/19 01:03:57;;;;;;;17.90;9.47;;;-3.50;99.90;-4.10;101738.00;;;;5014581;27;87892;-65
2022/12/19 01:06:23;;;;;;;14.17;9.63;;;-3.00;99.90;-4.20;101727.00;;;;5033078;27;87713;-64
2022/12/19 01:08:49;;;;;;;17.57;9.80;;;-3.50;99.90;-4.20;101714.00;;;;5035878;27;87413;-65
2022/12/19 01:11:15;;;;;;;14.70;9.37;;;-3.70;99.90;-4.20;101708.00;;;;5021466;27;87576;-66
2022/12/19 01:13:42;;;;;;;13.67;8.47;;;-3.70;99.90;-4.10;101695.00;;;;5002811;27;87592;-65
2022/12/19 01:16:16;;;;;;;18.83;10.17;;;-3.50;99.90;-4.00;101689.00;;;;5035843;27;87489;-64
2022/12/19 01:18:42;;;;;;;21.03;10.43;;;-3.50;99.90;-4.00;101711.00;;;;4999269;27;87617;-65
2022/12/19 01:21:10;;;;;;;20.33;10.57;;;-3.40;99.90;-3.90;101701.00;;;;5033407;27;87036;-63
2022/12/19 01:23:36;;;;;;;15.63;9.63;;;-3.40;99.90;-3.90;101703.00;;;;5033890;27;88586;-64
2022/12/19 01:26:02;;;;;;;22.87;9.67;;;-3.30;99.90;-3.80;101684.00;;;;5015725;27;87927;-64
2022/12/19 01:28:28;;;;;;;19.67;11.07;;;-2.70;99.90;-3.80;101684.00;;;;5035811;27;87842;-64
2022/12/19 01:30:55;;;;;;;19.60;10.40;;;-3.30;99.90;-3.80;101673.00;;;;5034645;27;87578;-65
2022/12/19 01:33:21;;;;;;;16.23;10.33;;;-3.20;99.90;-3.70;101678.00;;;;5035256;27;88600;-64
2022/12/19 01:35:48;;;;;;;17.70;9.90;;;-3.10;99.90;-3.70;101679.00;;;;5036675;27;87753;-65
2022/12/19 01:38:17;;;;;;;19.23;10.53;;;-3.30;99.90;-3.70;101675.00;;;;5000212;27;87908;-65
2022/12/19 01:40:56;;;;;;;16.37;9.97;;;-3.20;99.90;-3.70;101673.00;;;;5037148;27;86573;-64
2022/12/19 01:43:24;;;;;;;16.63;9.63;;;-3.10;99.90;-3.60;101674.00;;;;5034619;27;88005;-65
2022/12/19 01:46:12;;;;;;;17.90;9.83;;;-2.40;99.90;-3.60;101665.00;;;;5017816;27;87649;-64
2022/12/19 01:48:41;;;;;;;14.53;8.97;;;-3.00;99.90;-3.60;101656.00;;;;5035433;27;88000;-65
2022/12/19 01:51:14;;;;;;;19.17;9.03;;;-3.00;99.90;-3.60;101645.00;;;;5034851;27;87390;-65
2022/12/19 01:53:45;;;;;;;23.50;11.07;;;-2.20;99.90;-3.60;101653.00;;;;5036229;27;87436;-64
2022/12/19 01:56:11;;;;;;;19.40;9.53;;;-2.90;99.90;-3.60;101639.00;;;;5018472;27;87433;-65
2022/12/19 01:58:41;;;;;;;14.03;9.07;;;-3.10;99.90;-3.60;101645.00;;;;5017927;27;87909;-67
2022/12/19 02:01:07;;;;;;;18.30;11.23;;;-3.00;99.90;-3.60;101641.00;;;;5009394;27;87657;-64
2022/12/19 02:03:35;;;;;;;13.63;7.20;;;-3.00;99.90;-3.60;101637.00;;;;5033998;27;87673;-63
2022/12/19 02:06:04;;;;;;;12.80;8.53;;;-2.40;99.90;-3.60;101627.00;;;;5032067;27;87532;-64
2022/12/19 02:08:31;;;;;;;17.80;8.97;;;-1.80;99.90;-3.70;101639.00;;;;5036280;27;87480;-65
2022/12/19 02:10:57;;;;;;;18.50;8.87;;;-3.20;99.90;-3.70;101640.00;;;;5017285;27;87532;-65
2022/12/19 02:13:23;;;;;;;17.30;8.73;;;-3.00;99.90;-3.70;101641.00;;;;5030873;27;88385;-66
2022/12/19 02:15:55;;;;;;;13.47;8.47;;;-3.10;99.90;-3.70;101634.00;;;;5033750;27;88356;-65
2022/12/19 02:18:42;;;;;;;15.53;8.13;;;-3.20;99.90;-3.70;101626.00;;;;5033494;27;87838;-64
2022/12/19 02:22:02;;;;;;;13.67;7.27;;;-3.20;99.90;-3.80;101621.00;;;;4986041;27;87127;-66
2022/12/19 02:24:58;;;;;;;13.00;8.63;;;-3.10;99.90;-3.80;101608.00;;;;5024508;27;88415;-65
2022/12/19 02:28:09;;;;;;;9.87;7.37;;;-3.20;99.90;-3.80;101599.00;;;;5035043;27;87935;-65
2022/12/19 02:30:49;;;;;;;16.83;8.83;;;-3.20;99.90;-3.80;101584.00;;;;5027627;27;87531;-63
2022/12/19 02:33:31;;;;;;;13.30;8.03;;;-2.50;99.90;-3.80;101597.00;;;;5035426;27;87134;-65
2022/12/19 02:36:28;;;;;;;15.00;8.40;;;-3.30;99.90;-3.80;101614.00;;;;5016490;27;87979;-62
2022/12/19 02:39:29;;;;;;;13.83;7.87;;;-3.30;99.90;-3.80;101591.00;;;;5012769;27;88076;-64
2022/12/19 02:41:57;;;;;;;13.53;7.13;;;-3.40;99.90;-3.80;101608.00;;;;5016761;27;88181;-64
2022/12/19 02:44:32;;;;;;;13.63;7.10;;;-3.40;99.90;-3.80;101606.00;;;;5013357;27;87411;-65
2022/12/19 02:47:02;;;;;;;14.70;7.97;;;-3.30;99.90;-3.80;101603.00;;;;5017485;27;87905;-64
2022/12/19 02:49:34;;;;;;;16.87;8.03;;;-3.30;99.90;-3.80;101593.00;;;;5015622;27;87055;-65
2022/12/19 02:52:21;;;;;;;18.07;10.27;;;-3.20;99.90;-3.80;101616.00;;;;4998214;27;87814;-66
2022/12/19 02:54:50;;;;;;;14.93;8.23;;;-3.30;99.90;-3.80;101600.00;;;;5032745;27;87808;-64
2022/12/19 02:57:50;;;;;;;18.43;9.17;;;-3.20;99.90;-3.80;101605.00;;;;5033727;27;87762;-64
2022/12/19 03:00:22;;;;;;;19.27;8.93;;;-3.30;99.90;-3.80;101612.00;;;;5034179;27;87323;-63
2022/12/19 03:03:04;;;;;;;12.13;8.13;;;-2.00;99.90;-3.80;101627.00;;;;5012735;27;87074;-64
2022/12/19 03:05:49;;;;;;;21.60;8.87;;;-3.20;99.90;-3.80;101617.00;;;;5014833;27;87946;-65
2022/12/19 03:08:34;;;;;;;16.53;8.43;;;-3.20;99.90;-3.80;101614.00;;;;5032269;27;89045;-64
2022/12/19 03:11:13;;;;;;;17.87;8.83;;;-3.20;99.90;-3.80;101628.00;;;;5032294;27;87978;-65
2022/12/19 03:13:55;;;;;;;17.07;8.80;;;-3.10;99.90;-3.70;101621.00;;;;5012457;27;87389;-65
2022/12/19 03:16:22;;;;;;;13.87;7.30;;;-3.30;99.90;-3.70;101627.00;;;;5033624;27;87647;-64
2022/12/19 03:18:50;;;;;;;16.50;9.93;;;-2.20;99.90;-3.70;101619.00;;;;5012919;27;88016;-65
2022/12/19 03:21:39;;;;;;;12.33;8.27;;;-3.20;99.90;-3.70;101615.00;;;;5033749;27;87141;-65
2022/12/19 03:24:08;;;;;;;14.50;8.67;;;-3.10;99.90;-3.70;101623.00;;;;5031283;27;87213;-62
2022/12/19 03:27:01;;;;;;;16.07;9.77;;;-3.20;99.90;-3.70;101615.00;;;;5031808;27;86728;-65
2022/12/19 03:29:53;;;;;;;14.17;8.33;;;-3.20;99.90;-3.70;101637.00;;;;4995500;27;87828;-65
2022/12/19 03:32:22;;;;;;;19.67;9.53;;;-3.30;99.90;-3.60;101635.00;;;;5010229;27;89820;-64
2022/12/19 03:34:58;;;;;;;23.60;8.50;;;-2.50;99.90;-3.60;101645.00;;;;5033040;27;88446;-65
2022/12/19 03:37:28;;;;;;;14.70;7.67;;;-3.10;99.90;-3.60;101644.00;;;;5005234;27;87499;-65
2022/12/19 03:40:00;;;;;;;14.97;8.60;;;-3.00;99.90;-3.60;101647.00;;;;5014005;27;87951;-65
2022/12/19 03:45:25;;;;;;;11.37;7.73;;;-3.10;99.90;-3.60;101639.00;;;;5031062;27;87787;-63
2022/12/19 03:47:58;;;;;;;18.07;9.63;;;-3.00;99.90;-3.50;101650.00;;;;5034452;27;87782;-64
2022/12/19 03:50:31;;;;;;;15.43;9.20;;;-2.90;99.90;-3.40;101653.00;;;;5013914;27;87839;-66
2022/12/19 03:53:39;;;;;;;19.50;8.73;;;-2.80;99.90;-3.40;101643.00;;;;5001225;27;87629;-65
2022/12/19 03:56:21;;;;;;;15.20;9.03;;;-2.90;99.90;-3.30;101645.00;;;;5033322;27;87323;-64
2022/12/19 03:58:57;;;;;;;15.50;8.80;;;-2.80;99.90;-3.20;101639.00;;;;4997803;27;87809;-66
2022/12/19 04:01:26;;;;;;;14.67;7.70;;;-2.80;99.90;-3.20;101621.00;;;;5011407;27;89709;-65
2022/12/19 04:03:52;;;;;;;15.60;7.93;;;-2.70;99.90;-3.20;101626.00;;;;5033023;27;88483;-64
2022/12/19 04:06:18;;;;;;;19.80;9.83;;;-2.70;99.90;-3.10;101620.00;;;;5015574;27;87814;-64
2022/12/19 04:08:44;;;;;;;17.60;8.00;;;-2.60;99.90;-3.10;101617.00;;;;5013677;27;87841;-65
2022/12/19 04:11:17;;;;;;;16.63;8.27;;;-2.70;99.90;-3.10;101619.00;;;;4997203;27;88748;-63
2022/12/19 04:13:53;;;;;;;19.17;9.70;;;-2.50;99.90;-3.10;101623.00;;;;5012911;27;91553;-67
2022/12/19 04:16:30;;;;;;;17.50;9.13;;;-2.50;99.90;-3.00;101621.00;;;;5016837;27;87880;-63
2022/12/19 04:19:14;;;;;;;15.80;8.23;;;-2.50;99.90;-3.00;101612.00;;;;5036273;27;86457;-64
2022/12/19 04:21:49;;;;;;;13.40;7.97;;;-2.50;99.90;-3.00;101601.00;;;;5003380;27;88868;-64
2022/12/19 04:24:24;;;;;;;16.10;8.93;;;-2.50;99.90;-3.00;101596.00;;;;5036720;27;87905;-65
2022/12/19 04:26:53;;;;;;;16.90;9.40;;;-2.50;99.90;-3.00;101598.00;;;;5020506;27;88794;-64
2022/12/19 04:29:20;;;;;;;13.33;8.67;;;-2.50;99.90;-3.00;101600.00;;;;5020126;27;88135;-65
2022/12/19 04:31:47;;;;;;;13.37;7.53;;;-2.50;99.90;-3.00;101603.00;;;;5019877;27;87422;-64
2022/12/19 04:34:18;;;;;;;19.47;9.57;;;-2.50;99.90;-3.00;101592.00;;;;5016066;27;88180;-61
2022/12/19 04:36:44;;;;;;;15.13;9.07;;;-2.50;99.90;-3.00;101588.00;;;;5001968;27;87563;-65
2022/12/19 04:39:10;;;;;;;14.13;8.07;;;-2.50;99.90;-3.00;101585.00;;;;5037385;27;87725;-65
2022/12/19 04:41:36;;;;;;;26.87;10.53;;;-2.60;99.90;-3.00;101578.00;;;;5039121;27;88239;-62
2022/12/19 04:44:02;;;;;;;19.27;9.90;;;-2.50;99.90;-3.00;101584.00;;;;5036417;27;117306;-64
2022/12/19 04:46:27;;;;;;;17.43;10.70;;;-2.50;99.90;-3.00;101583.00;;;;5039910;27;87443;-64
2022/12/19 04:48:53;;;;;;;19.70;10.07;;;-1.60;99.90;-3.00;101582.00;;;;5016701;27;87752;-64
2022/12/19 04:51:19;;;;;;;13.07;8.40;;;-2.50;99.90;-3.00;101581.00;;;;5034932;27;88634;-64
2022/12/19 04:53:45;;;;;;;15.33;8.53;;;-1.50;99.90;-3.00;101586.00;;;;5014653;27;89531;-65
2022/12/19 04:56:10;;;;;;;13.07;8.33;;;-2.40;99.90;-3.00;101579.00;;;;5018331;27;111077;-64
2022/12/19 04:58:36;;;;;;;18.37;9.57;;;-2.50;99.90;-3.00;101584.00;;;;5037470;27;87714;-65
2022/12/19 05:01:05;;;;;;;13.80;8.70;;;-2.40;99.90;-2.90;101592.00;;;;5017301;27;98667;-65
2022/12/19 05:03:32;;;;;;;18.97;8.73;;;-2.40;99.90;-2.90;101587.00;;;;5016904;27;87596;-65
2022/12/19 05:06:08;;;;;;;21.10;9.53;;;-2.60;99.90;-2.90;101578.00;;;;5036556;27;90285;-64
2022/12/19 05:08:35;;;;;;;19.70;10.13;;;-2.40;99.90;-2.90;101575.00;;;;5039708;27;86947;-64
2022/12/19 05:11:03;;;;;;;15.43;9.87;;;-2.40;99.90;-2.80;101565.00;;;;5037757;27;87729;-64
2022/12/19 05:13:29;;;;;;;15.37;8.97;;;-2.50;99.90;-2.80;101568.00;;;;5039198;27;87660;-64
2022/12/19 05:16:07;;;;;;;17.80;9.47;;;-2.40;99.90;-2.80;101567.00;;;;5034876;27;88683;-64
2022/12/19 05:18:34;;;;;;;15.83;10.13;;;-2.40;99.90;-2.80;101565.00;;;;5037050;27;87598;-65
2022/12/19 05:21:00;;;;;;;13.83;8.43;;;-1.50;99.90;-2.70;101572.00;;;;5033472;27;104529;-64
2022/12/19 05:23:27;;;;;;;17.07;8.73;;;-2.30;99.90;-2.70;101562.00;;;;5016122;27;88008;-64
2022/12/19 05:25:56;;;;;;;17.83;8.90;;;-2.30;99.90;-2.70;101561.00;;;;5036040;27;87772;-62
2022/12/19 05:28:22;;;;;;;15.07;8.00;;;-2.20;99.90;-2.60;101561.00;;;;5035700;27;87442;-63
2022/12/19 05:30:47;;;;;;;13.73;8.80;;;-2.30;99.90;-2.60;101551.00;;;;5030700;27;87232;-64
2022/12/19 05:33:13;;;;;;;14.73;8.03;;;-2.20;99.90;-2.60;101545.00;;;;5035001;27;107587;-63
2022/12/19 05:35:39;;;;;;;13.07;8.87;;;-1.80;99.90;-2.60;101547.00;;;;5033457;27;104781;-64
2022/12/19 05:38:05;;;;;;;14.53;7.80;;;-2.10;99.90;-2.60;101542.00;;;;5001955;27;87538;-64
2022/12/19 05:40:31;;;;;;;16.93;9.50;;;-2.10;99.90;-2.60;101553.00;;;;5035951;27;88809;-63
2022/12/19 05:42:57;;;;;;;15.90;9.03;;;-2.10;99.90;-2.50;101543.00;;;;5035857;27;88111;-65
2022/12/19 05:45:23;;;;;;;18.00;8.77;;;-2.10;99.90;-2.50;101551.00;;;;5035930;27;110951;-62
2022/12/19 05:47:48;;;;;;;13.33;9.00;;;-2.00;99.90;-2.50;101551.00;;;;5018760;27;87954;-65
2022/12/19 05:50:17;;;;;;;13.33;9.50;;;-2.00;99.90;-2.50;101553.00;;;;5037592;27;87834;-63
2022/12/19 05:52:43;;;;;;;19.07;9.87;;;-2.10;99.90;-2.50;101539.00;;;;5017375;27;87706;-64
2022/12/19 05:55:10;;;;;;;21.93;10.70;;;-2.00;99.90;-2.40;101560.00;;;;5030476;27;87862;-64
2022/12/19 05:57:36;;;;;;;16.17;8.63;;;-2.00;99.90;-2.40;101547.00;;;;5031484;27;87131;-65
2022/12/19 06:00:04;;;;;;;16.27;9.67;;;-1.10;99.90;-2.40;101552.00;;;;5017072;27;87735;-64
2022/12/19 06:02:33;;;;;;;14.83;8.07;;;-2.60;99.90;-2.40;101564.00;;;;5019759;27;87590;-63
2022/12/19 06:05:00;;;;;;;21.53;11.40;;;-1.90;99.90;-2.40;101562.00;;;;5016084;27;88650;-61
2022/12/19 06:07:26;;;;;;;18.77;9.60;;;-2.00;99.90;-2.40;101545.00;;;;5031758;27;87436;-66
2022/12/19 06:09:52;;;;;;;23.50;9.80;;;-1.90;99.90;-2.40;101556.00;;;;5026195;27;87515;-65
2022/12/19 06:12:17;;;;;;;19.50;9.57;;;-2.00;99.90;-2.40;101574.00;;;;5014116;27;87479;-64
2022/12/19 06:14:43;;;;;;;18.60;10.30;;;-1.90;99.90;-2.40;101551.00;;;;5032326;27;88871;-62
2022/12/19 06:17:09;;;;;;;20.33;10.47;;;-1.90;99.90;-2.30;101550.00;;;;5013050;27;87569;-66
2022/12/19 06:19:35;;;;;;;17.60;9.73;;;-1.90;99.90;-2.30;101553.00;;;;5032324;27;88660;-64
2022/12/19 06:22:01;;;;;;;18.40;10.40;;;-1.70;99.90;-2.20;101533.00;;;;5030984;27;87289;-61
2022/12/19 06:24:26;;;;;;;18.50;11.03;;;-0.60;99.90;-2.20;101537.00;;;;4997307;27;87796;-63
2022/12/19 06:26:52;;;;;;;19.40;11.20;;;-1.70;99.90;-2.20;101537.00;;;;5031523;27;87314;-64
2022/12/19 06:29:18;;;;;;;21.40;10.73;;;-1.80;99.90;-2.10;101539.00;;;;5011518;27;88809;-64
2022/12/19 06:31:44;;;;;;;16.87;9.00;;;-1.70;99.90;-2.10;101535.00;;;;5028522;27;118785;-64
2022/12/19 06:34:10;;;;;;;20.90;10.10;;;-0.90;99.90;-2.00;101536.00;;;;5030661;27;112844;-64
2022/12/19 06:36:36;;;;;;;21.37;9.73;;;-1.70;99.90;-2.00;101530.00;;;;5029734;27;87808;-63
2022/12/19 06:39:03;;;;;;;18.43;10.73;;;-1.70;99.90;-1.90;101525.00;;;;5012950;27;89483;-63
2022/12/19 06:44:16;;;;;;;17.37;10.53;;;-1.50;99.90;-1.90;101529.00;;;;4992296;27;87584;-63
2022/12/19 06:46:43;;;;;;;16.53;9.40;;;-1.40;99.90;-1.80;101537.00;;;;4993948;27;87135;-64
2022/12/19 06:49:10;;;;;;;12.37;9.93;;;-1.40;99.90;-1.80;101542.00;;;;4996004;27;87701;-64
2022/12/19 06:51:36;;;;;;;21.00;11.00;;;-1.30;99.90;-1.80;101537.00;;;;4993103;27;88187;-63
2022/12/19 06:54:02;;;;;;;11.67;9.13;;;-1.30;99.90;-1.80;101536.00;;;;4989615;27;98334;-62
2022/12/19 06:56:33;;;;;;;19.57;10.93;;;-1.40;99.90;-1.70;101536.00;;;;4988078;27;87948;-61
2022/12/19 06:58:59;;;;;;;31.63;12.83;;;-1.40;99.90;-1.70;101546.00;;;;4992354;27;88182;-63
2022/12/19 07:02:21;;;;;;;15.27;10.40;;;-1.30;99.90;-1.70;101554.00;;;;4988202;28;90278;-63
2022/12/19 07:05:02;;;;;;;21.50;13.70;;;-1.30;99.90;-1.60;101544.00;;;;4991473;28;87606;-63
2022/12/19 07:07:28;;;;;;;24.03;12.37;;;-1.30;99.90;-1.60;101552.00;;;;4987083;28;87804;-63
2022/12/19 07:09:54;;;;;;;20.47;11.30;;;-1.20;99.90;-1.60;101553.00;;;;4991419;27;87881;-63
2022/12/19 07:12:19;;;;;;;19.20;9.47;;;-1.20;99.90;-1.50;101543.00;;;;4989444;28;87987;-62
2022/12/19 07:14:45;;;;;;;15.90;9.37;;;-1.20;99.90;-1.50;101542.00;;;;4977962;28;111243;-65
2022/12/19 07:17:12;;;;;;;16.03;10.47;;;-0.70;99.90;-1.50;101536.00;;;;4970831;28;108884;-61
2022/12/19 07:19:38;;;;;;;15.87;9.70;;;-1.10;99.90;-1.40;101544.00;;;;4979771;27;100465;-65
2022/12/19 07:22:05;;;;;;;15.83;9.70;;;-0.30;99.90;-1.40;101547.00;;;;4990599;27;117311;-63
2022/12/19 07:24:31;;;;;;;18.40;10.63;;;-1.00;99.90;-1.40;101536.00;;;;4987669;27;105211;-64
2022/12/19 07:26:57;;;;;;;25.07;10.00;;;-1.00;99.90;-1.40;101542.00;;;;4991164;27;95083;-64
2022/12/19 07:29:23;;;;;;;18.20;10.87;;;-1.00;99.90;-1.40;101522.00;;;;4986361;27;88351;-64
2022/12/19 07:31:48;;;;;;;18.53;10.70;;;-0.90;99.90;-1.40;101518.00;;;;4988219;27;88019;-66
2022/12/19 07:34:14;;;;;;;15.83;9.87;;;-0.30;99.90;-1.30;101519.00;;;;4988683;27;99493;-63
2022/12/19 07:36:40;;;;;;;18.63;10.33;;;-1.00;99.90;-1.40;101530.00;;;;4987985;27;94345;-63
2022/12/19 07:39:05;;;;;;;13.07;9.47;;;-0.90;99.90;-1.30;101525.00;;;;4986854;27;109848;-64
2022/12/19 07:41:31;;;;;;;15.03;9.80;;;-0.90;99.90;-1.30;101526.00;;;;4991316;27;118055;-62
2022/12/19 07:43:57;;;;;;;14.73;10.97;;;-0.90;99.90;-1.30;101527.00;;;;4990342;27;88597;-65
2022/12/19 07:46:23;;;;;;;23.20;10.73;;;-0.90;99.90;-1.30;101540.00;;;;4985864;28;107859;-62
2022/12/19 07:48:49;;;;;;;12.57;8.60;;;-0.80;99.90;-1.20;101546.00;;;;4987983;28;118055;-64
2022/12/19 07:51:15;;;;;;;16.23;10.40;;;-0.90;99.90;-1.20;101534.00;;;;4986414;27;88779;-64
2022/12/19 07:53:40;;;;;;;24.17;10.37;;;0.10;99.90;-1.10;101543.00;;;;4994619;28;110576;-63
2022/12/19 07:56:07;;;;;;;21.30;10.67;;;-0.80;99.90;-1.10;101532.00;;;;4992886;28;109989;-62
2022/12/19 07:58:32;;;;;;;17.70;10.87;;;-0.70;99.90;-1.10;101524.00;;;;4996531;27;99128;-64
2022/12/19 08:01:02;;;;;;;18.47;10.50;;;-0.70;99.90;-1.10;101524.00;;;;4990332;28;115935;-63
2022/12/19 08:03:31;;;;;;;19.10;9.93;;;-0.60;99.90;-1.00;101525.00;;;;4989446;27;87634;-63
2022/12/19 08:06:02;;;;;;;18.63;11.33;;;-0.60;99.90;-1.00;101524.00;;;;4993667;27;88652;-63
2022/12/19 08:08:29;;;;;;;15.43;10.00;;;-0.70;99.90;-1.00;101530.00;;;;4992342;27;98655;-63
2022/12/19 08:10:55;;;;;;;18.37;10.83;;;-0.60;99.90;-0.90;101532.00;;;;4994153;28;89600;-64
2022/12/19 08:13:22;;;;;;;15.47;11.53;;;-0.60;99.90;-0.90;101522.00;;;;4987110;27;87934;-64
2022/12/19 08:15:47;;;;;;;17.67;10.83;;;0.00;99.90;-0.90;101530.00;;;;4995642;27;108480;-65
2022/12/19 08:18:13;;;;;;;17.57;11.93;;;-0.10;99.90;-0.80;101529.00;;;;4997724;27;91627;-64
2022/12/19 08:20:43;;;;;;;22.30;10.70;;;-0.60;99.90;-0.80;101523.00;;;;4994665;27;118222;-63
2022/12/19 08:23:08;;;;;;;26.30;12.67;;;-0.40;99.90;-0.80;101527.00;;;;4999667;27;87987;-64
2022/12/19 08:25:34;;;;;;;11.77;8.67;;;-0.60;99.90;-0.80;101505.00;;;;4995143;27;108024;-65
2022/12/19 08:28:00;;;;;;;16.87;9.80;;;-0.40;99.90;-0.70;101521.00;;;;4994284;27;117794;-64
2022/12/19 08:30:25;;;;;;;21.33;11.17;;;-0.40;99.90;-0.70;101531.00;;;;4993966;27;117829;-64
2022/12/19 08:32:51;;;;;;;14.40;8.10;;;-0.40;99.90;-0.70;101534.00;;;;4994690;27;91220;-63
2022/12/19 08:35:17;;;;;;;19.63;10.67;;;-0.30;99.90;-0.70;101519.00;;;;4993380;28;95795;-64
2022/12/19 08:37:43;;;;;;;18.13;9.67;;;-0.30;99.90;-0.60;101535.00;;;;4961939;28;116736;-64
2022/12/19 08:40:09;;;;;;;24.93;10.50;;;-0.30;99.90;-0.60;101534.00;;;;4992548;28;88602;-65
2022/12/19 08:42:36;;;;;;;14.77;9.87;;;-0.30;99.90;-0.60;101537.00;;;;5007904;27;100578;-62
2022/12/19 08:45:02;;;;;;;11.77;8.80;;;-0.20;99.90;-0.60;101523.00;;;;5031878;27;109260;-63
2022/12/19 08:47:27;;;;;;;20.50;11.07;;;-0.20;99.90;-0.50;101532.00;;;;5035202;27;90248;-64
2022/12/19 08:49:53;;;;;;;17.43;9.13;;;0.10;99.90;-0.50;101521.00;;;;5031485;27;118595;-62
2022/12/19 08:52:19;;;;;;;25.23;10.33;;;-0.20;99.90;-0.50;101520.00;;;;5034439;27;88009;-63
2022/12/19 08:54:44;;;;;;;13.90;9.70;;;-0.10;99.90;-0.50;101523.00;;;;5034562;27;108836;-62
2022/12/19 08:57:10;;;;;;;15.37;10.23;;;-0.10;99.90;-0.40;101514.00;;;;5035057;27;119814;-66
2022/12/19 08:59:36;;;;;;;20.93;11.13;;;1.10;99.90;-0.40;101512.00;;;;5032988;27;89360;-63
2022/12/19 09:02:01;;;;;;;19.37;11.67;;;-0.10;99.90;-0.40;101494.00;;;;5033196;27;112600;-64
2022/12/19 09:04:28;;;;;;;18.90;11.03;;;0.90;99.90;-0.30;101509.00;;;;5032510;27;109476;-63
2022/12/19 09:06:55;;;;;;;28.03;16.90;;;0.00;99.90;-0.30;101498.00;;;;5028791;27;89548;-61
2022/12/19 09:09:20;;;;;;;23.73;14.20;;;0.10;99.90;-0.20;101497.00;;;;5029505;27;110056;-64
2022/12/19 09:11:46;;;;;;;29.37;13.87;;;0.10;99.90;-0.20;101500.00;;;;5028102;27;113288;-62
2022/12/19 09:14:12;;;;;;;30.60;20.57;;;0.10;99.90;-0.20;101488.00;;;;5011400;27;87162;-63
2022/12/19 09:16:37;;;;;;;23.70;15.70;;;0.10;99.90;-0.20;101501.00;;;;5029625;27;118099;-63
2022/12/19 09:19:03;;;;;;;15.27;10.87;;;0.10;99.90;-0.20;101490.00;;;;5027685;27;116368;-64
2022/12/19 09:21:29;;;;;;;22.70;12.87;;;0.10;99.90;-0.10;101485.00;;;;5030235;27;113063;-62
2022/12/19 09:23:58;;;;;;;20.33;12.27;;;0.20;99.90;-0.10;101479.00;;;;5032806;27;89112;-61
2022/12/19 09:26:26;;;;;;;15.83;9.30;;;0.20;99.90;0.00;101466.00;;;;5033064;27;88285;-63
2022/12/19 09:28:52;;;;;;;19.57;11.93;;;0.20;99.90;0.00;101460.00;;;;5030087;27;88386;-63
2022/12/19 09:31:22;;;;;;;26.87;12.30;;;0.30;99.90;0.00;101468.00;;;;5028551;27;87938;-64
2022/12/19 09:33:48;;;;;;;19.73;10.30;;;0.30;99.90;0.10;101459.00;;;;5025118;27;88076;-64
2022/12/19 09:36:19;;;;;;;13.20;8.57;;;0.40;99.90;0.10;101462.00;;;;5030711;27;87940;-64
2022/12/19 09:38:45;;;;;;;13.77;9.03;;;0.40;99.90;0.10;101455.00;;;;5027505;27;88623;-64
2022/12/19 09:41:57;;;;;;;16.60;11.30;;;0.40;99.90;0.10;101446.00;;;;5030353;27;88768;-63
2022/12/19 09:44:38;;;;;;;15.67;10.27;;;0.50;99.90;0.10;101463.00;;;;5028082;27;87958;-66
2022/12/19 09:47:12;;;;;;;22.20;11.03;;;0.50;99.90;0.20;101456.00;;;;5011020;27;89707;-64
2022/12/19 09:49:42;;;;;;;18.00;10.97;;;0.50;99.90;0.20;101446.00;;;;5030573;27;95036;-62
2022/12/19 09:52:34;;;;;;;16.97;9.27;;;0.60;99.90;0.20;101453.00;;;;5028230;27;87881;-64
2022/12/19 09:55:23;;;;;;;17.70;10.60;;;0.60;99.90;0.20;101444.00;;;;5011797;27;87930;-64
2022/12/19 09:57:51;;;;;;;16.17;9.33;;;0.50;99.90;0.30;101449.00;;;;5010064;27;88173;-62
2022/12/19 10:00:20;;;;;;;21.27;11.83;;;0.60;99.90;0.40;101437.00;;;;5010673;27;89152;-64
2022/12/19 10:02:55;;;;;;;14.33;10.10;;;1.20;99.90;0.40;101444.00;;;;5030370;27;96527;-63
2022/12/19 10:05:45;;;;;;;15.43;10.43;;;0.80;99.90;0.40;101441.00;;;;5027910;27;87354;-62
2022/12/19 10:08:52;;;;;;;18.30;11.90;;;0.80;99.90;0.50;101438.00;;;;5030989;27;87834;-65
2022/12/19 10:11:41;;;;;;;19.37;11.80;;;0.70;99.90;0.60;101417.00;;;;5023674;27;112823;-65
2022/12/19 10:14:32;;;;;;;12.27;8.73;;;1.00;99.90;0.60;101433.00;;;;5022322;27;88731;-65
2022/12/19 10:17:34;;;;;;;18.33;9.97;;;1.00;99.90;0.70;101431.00;;;;5011736;27;87727;-65
2022/12/19 10:20:34;;;;;;;16.63;10.17;;;1.00;99.90;0.80;101424.00;;;;5031644;27;106694;-65
2022/12/19 10:23:37;;;;;;;15.10;9.37;;;1.00;99.90;0.80;101417.00;;;;5012483;27;88120;-65
2022/12/19 10:26:14;;;;;;;20.70;10.97;;;0.90;99.90;0.90;101399.00;;;;5013600;27;88087;-66
2022/12/19 10:28:55;;;;;;;16.93;10.20;;;1.20;99.90;0.90;101391.00;;;;5022174;27;89650;-67
2022/12/19 10:31:37;;;;;;;21.23;10.50;;;1.20;99.90;1.00;101402.00;;;;5002694;27;88066;-67
2022/12/19 10:34:21;;;;;;;18.70;10.37;;;1.60;99.90;1.10;101405.00;;;;5030351;27;88630;-67
2022/12/19 10:36:54;;;;;;;19.70;9.47;;;2.10;99.90;1.10;101407.00;;;;4995411;27;87746;-68
2022/12/19 10:39:44;;;;;;;15.87;9.43;;;1.40;99.90;1.10;101411.00;;;;5006756;27;87684;-67
2022/12/19 10:42:18;;;;;;;16.00;9.77;;;1.40;99.90;1.20;101399.00;;;;5030011;27;100837;-67
2022/12/19 10:44:46;;;;;;;16.97;8.83;;;1.60;99.90;1.30;101390.00;;;;5011929;27;88904;-66
2022/12/19 10:47:16;;;;;;;20.97;9.50;;;2.60;99.90;1.30;101401.00;;;;5030556;27;87870;-67
2022/12/19 10:49:42;;;;;;;15.57;10.33;;;1.60;99.90;1.40;101391.00;;;;5015245;27;87975;-66
2022/12/19 10:52:10;;;;;;;19.60;10.77;;;1.60;99.90;1.40;101386.00;;;;5030617;27;117140;-67
2022/12/19 10:54:36;;;;;;;19.13;8.67;;;1.60;99.90;1.40;101393.00;;;;5029217;27;87893;-66
2022/12/19 10:57:20;;;;;;;12.57;9.87;;;1.60;99.90;1.40;101405.00;;;;5024925;27;87992;-66
2022/12/19 11:00:16;;;;;;;14.30;9.13;;;2.10;99.90;1.40;101402.00;;;;5012107;27;87066;-67
2022/12/19 11:02:45;;;;;;;16.63;9.87;;;1.70;99.90;1.50;101393.00;;;;5010161;27;87865;-65